createdAt,value
2017-11-17T00:02:22.976Z,78.78
2017-11-17T00:04:51.276Z,77.45
2017-11-17T00:07:19.550Z,77.35
2017-11-17T00:09:48.476Z,77.24
2017-11-17T00:12:16.743Z,77.55
2017-11-17T00:14:44.997Z,77.42
2017-11-17T00:17:13.758Z,77.02
2017-11-17T00:19:42.247Z,77.13
2017-11-17T00:22:10.470Z,77.23
2017-11-17T00:24:39.569Z,76.98
2017-11-17T00:27:07.879Z,76.77
2017-11-17T00:29:36.149Z,76.93
2017-11-17T00:32:04.437Z,76.28
2017-11-17T00:34:32.751Z,76.59
2017-11-17T00:37:01.086Z,76.88
2017-11-17T00:39:29.356Z,76.75
2017-11-17T00:41:57.682Z,76.47
2017-11-17T00:44:26.738Z,76.82
2017-11-17T00:46:55.021Z,76.95
2017-11-17T00:49:23.320Z,76.81
2017-11-17T00:51:51.584Z,77.12
2017-11-17T00:54:19.976Z,76.98
2017-11-17T00:56:48.225Z,76.93
2017-11-17T00:59:16.518Z,76.42
2017-11-17T01:01:44.771Z,76.51
2017-11-17T01:04:13.049Z,76.63
2017-11-17T01:06:41.312Z,76.76
2017-11-17T01:09:09.599Z,77.26
2017-11-17T01:11:37.866Z,77.27
2017-11-17T01:14:06.177Z,77.33
2017-11-17T01:16:34.452Z,77.61
2017-11-17T01:19:02.733Z,77.38
2017-11-17T01:21:31.030Z,77.73
2017-11-17T01:23:59.418Z,77.22
2017-11-17T01:26:27.720Z,77.60
2017-11-17T01:28:55.982Z,78.00
2017-11-17T01:31:24.292Z,77.19
2017-11-17T01:33:52.558Z,77.08
2017-11-17T01:36:20.861Z,77.32
2017-11-17T01:38:49.829Z,76.25
2017-11-17T01:41:18.249Z,76.41
2017-11-17T01:43:46.508Z,75.73
2017-11-17T01:46:14.869Z,75.94
2017-11-17T01:48:43.170Z,76.22
2017-11-17T01:51:11.422Z,76.15
2017-11-17T01:53:39.729Z,76.05
2017-11-17T01:56:07.997Z,75.62
2017-11-17T01:58:36.294Z,75.61
2017-11-17T02:01:04.564Z,75.89
2017-11-17T02:03:33.667Z,76.23
2017-11-17T02:06:01.969Z,76.70
2017-11-17T02:08:30.313Z,76.75
2017-11-17T02:10:58.597Z,77.01
2017-11-17T02:13:26.880Z,77.34
2017-11-17T02:15:55.167Z,76.95
2017-11-17T02:18:23.442Z,76.66
2017-11-17T02:20:51.741Z,76.29
2017-11-17T02:23:19.985Z,76.36
2017-11-17T02:25:48.263Z,76.34
2017-11-17T02:28:16.516Z,76.19
2017-11-17T02:30:45.413Z,76.17
2017-11-17T02:33:13.685Z,76.48
2017-11-17T02:35:41.972Z,76.42
2017-11-17T02:38:10.246Z,76.83
2017-11-17T02:40:38.520Z,77.13
2017-11-17T02:43:06.806Z,77.28
2017-11-17T02:45:35.082Z,77.43
2017-11-17T02:48:03.550Z,77.53
2017-11-17T02:50:31.787Z,77.57
2017-11-17T02:53:00.093Z,77.11
2017-11-17T02:55:28.373Z,77.29
2017-11-17T02:57:56.686Z,77.52
2017-11-17T03:00:24.944Z,77.59
2017-11-17T03:02:53.242Z,77.32
2017-11-17T03:05:21.485Z,77.50
2017-11-17T03:07:49.765Z,77.33
2017-11-17T03:10:18.076Z,77.68
2017-11-17T03:12:46.658Z,77.92
2017-11-17T03:15:14.981Z,78.11
2017-11-17T03:17:43.210Z,78.10
2017-11-17T03:20:11.500Z,78.36
2017-11-17T03:22:40.260Z,78.61
2017-11-17T03:25:08.544Z,77.94
2017-11-17T03:27:36.805Z,77.10
2017-11-17T03:30:05.084Z,76.46
2017-11-17T03:32:33.332Z,76.01
2017-11-17T03:35:01.632Z,75.92
2017-11-17T03:37:29.927Z,76.10
2017-11-17T03:39:58.230Z,75.87
2017-11-17T03:42:26.497Z,76.21
2017-11-17T03:44:54.771Z,76.94
2017-11-17T03:47:23.034Z,77.40
2017-11-17T03:49:51.333Z,77.81
2017-11-17T03:52:19.636Z,78.12
2017-11-17T03:54:47.889Z,78.15
2017-11-17T03:57:16.183Z,77.94
2017-11-17T03:59:44.428Z,77.52
2017-11-17T04:02:12.712Z,77.66
2017-11-17T04:04:41.017Z,76.95
2017-11-17T04:07:09.317Z,76.83
2017-11-17T04:09:37.573Z,76.69
2017-11-17T04:12:05.866Z,76.59
2017-11-17T04:14:34.909Z,76.21
2017-11-17T04:17:03.199Z,76.20
2017-11-17T04:19:31.488Z,75.99
2017-11-17T04:22:00.046Z,75.60
2017-11-17T04:24:28.327Z,75.75
2017-11-17T04:26:57.698Z,76.51
2017-11-17T04:29:26.882Z,76.85
2017-11-17T04:31:56.153Z,77.75
2017-11-17T04:34:24.444Z,77.82
2017-11-17T04:36:53.416Z,78.14
2017-11-17T04:39:21.668Z,77.41
2017-11-17T04:41:49.979Z,77.26
2017-11-17T04:44:18.250Z,77.03
2017-11-17T04:46:48.423Z,76.77
2017-11-17T04:49:18.494Z,77.00
2017-11-17T04:51:46.770Z,76.10
2017-11-17T04:54:15.062Z,75.81
2017-11-17T04:56:43.367Z,75.78
2017-11-17T04:59:11.643Z,75.94
2017-11-17T05:01:39.966Z,75.83
2017-11-17T05:04:08.220Z,75.87
2017-11-17T05:06:36.512Z,75.70
2017-11-17T05:09:04.774Z,76.23
2017-11-17T05:11:33.036Z,76.17
2017-11-17T05:14:01.323Z,76.48
2017-11-17T05:16:29.662Z,76.22
2017-11-17T05:18:57.945Z,76.32
2017-11-17T05:21:26.199Z,76.12
2017-11-17T05:23:54.500Z,76.03
2017-11-17T05:26:22.800Z,74.96
2017-11-17T05:28:51.085Z,75.97
2017-11-17T05:31:19.390Z,75.82
2017-11-17T05:33:47.640Z,75.46
2017-11-17T05:36:16.897Z,75.88
2017-11-17T05:38:45.241Z,75.37
2017-11-17T05:41:13.524Z,75.11
2017-11-17T05:43:41.784Z,75.23
2017-11-17T05:46:10.086Z,75.34
2017-11-17T05:48:38.340Z,75.59
2017-11-17T05:51:06.725Z,75.95
2017-11-17T05:53:37.256Z,76.08
2017-11-17T05:56:05.542Z,75.88
2017-11-17T05:58:33.808Z,75.96
2017-11-17T06:01:09.216Z,75.77
2017-11-17T06:03:43.218Z,76.57
2017-11-17T06:06:11.563Z,76.43
2017-11-17T06:08:39.815Z,76.79
2017-11-17T06:11:08.090Z,76.43
2017-11-17T06:13:36.366Z,76.73
2017-11-17T06:16:05.217Z,75.94
2017-11-17T06:18:33.492Z,76.97
2017-11-17T06:21:01.829Z,76.88
2017-11-17T06:23:30.204Z,76.70
2017-11-17T06:25:58.466Z,77.02
2017-11-17T06:28:26.753Z,76.84
2017-11-17T06:30:55.005Z,77.01
2017-11-17T06:33:23.424Z,77.36
2017-11-17T06:35:51.717Z,76.95
2017-11-17T06:38:19.982Z,76.83
2017-11-17T06:40:48.228Z,77.35
2017-11-17T06:43:16.619Z,76.92
2017-11-17T06:45:45.338Z,76.97
2017-11-17T06:48:13.617Z,76.71
2017-11-17T06:50:41.887Z,76.46
2017-11-17T06:53:10.236Z,76.67
2017-11-17T06:55:38.478Z,76.77
2017-11-17T06:58:07.205Z,77.15
2017-11-17T07:00:35.493Z,76.06
2017-11-17T07:03:03.746Z,76.45
2017-11-17T07:05:32.085Z,76.65
2017-11-17T07:08:00.353Z,77.12
2017-11-17T07:10:29.840Z,77.16
2017-11-17T07:12:58.153Z,76.94
2017-11-17T07:15:26.465Z,77.12
2017-11-17T07:17:54.733Z,77.22
2017-11-17T07:20:23.012Z,77.49
2017-11-17T07:22:51.318Z,78.15
2017-11-17T07:25:19.570Z,79.97
2017-11-17T07:27:47.850Z,80.69
2017-11-17T07:30:16.108Z,81.58
2017-11-17T07:32:44.389Z,82.02
2017-11-17T07:35:12.649Z,81.39
2017-11-17T07:37:40.989Z,80.84
2017-11-17T07:40:09.361Z,80.43
2017-11-17T07:42:37.692Z,79.86
2017-11-17T07:45:05.941Z,79.60
2017-11-17T07:47:34.245Z,79.52
2017-11-17T07:50:02.584Z,79.34
2017-11-17T07:52:30.833Z,79.20
2017-11-17T07:54:59.159Z,78.77
2017-11-17T07:57:27.437Z,78.67
2017-11-17T07:59:55.737Z,79.16
2017-11-17T08:02:24.015Z,79.74
2017-11-17T08:04:52.279Z,80.59
2017-11-17T08:07:20.594Z,81.45
2017-11-17T08:09:48.888Z,82.05
2017-11-17T08:12:17.189Z,82.46
2017-11-17T08:14:45.465Z,81.83
2017-11-17T08:17:25.365Z,81.80
2017-11-17T08:19:53.977Z,81.64
2017-11-17T08:22:22.281Z,81.01
2017-11-17T08:24:50.617Z,80.36
2017-11-17T08:27:18.913Z,79.98
2017-11-17T08:29:47.301Z,79.49
2017-11-17T08:32:15.551Z,79.47
2017-11-17T08:34:44.692Z,79.80
2017-11-17T08:37:13.061Z,79.45
2017-11-17T08:39:41.330Z,79.11
2017-11-17T08:42:09.709Z,78.41
2017-11-17T08:44:37.995Z,78.20
2017-11-17T08:47:06.350Z,77.71
2017-11-17T08:49:34.622Z,77.10
2017-11-17T08:52:02.920Z,76.85
2017-11-17T08:54:31.206Z,77.36
2017-11-17T08:56:59.476Z,77.71
2017-11-17T08:59:27.798Z,77.75
2017-11-17T09:01:56.052Z,77.66
2017-11-17T09:04:24.385Z,77.04
2017-11-17T09:06:52.621Z,77.55
2017-11-17T09:09:20.937Z,78.11
2017-11-17T09:11:50.676Z,78.04
2017-11-17T09:14:19.628Z,77.86
2017-11-17T09:16:47.928Z,76.99
2017-11-17T09:19:16.353Z,76.63
2017-11-17T09:21:44.656Z,76.85
2017-11-17T09:24:12.965Z,76.43
2017-11-17T09:26:41.293Z,76.61
2017-11-17T09:29:09.614Z,76.49
2017-11-17T09:31:37.878Z,75.99
2017-11-17T09:34:06.140Z,75.56
2017-11-17T09:36:34.479Z,76.33
2017-11-17T09:39:02.742Z,76.17
2017-11-17T09:41:31.054Z,76.40
2017-11-17T09:43:59.325Z,76.00
2017-11-17T09:46:27.649Z,76.51
2017-11-17T09:48:55.934Z,76.34
2017-11-17T09:51:24.265Z,76.89
2017-11-17T09:53:52.513Z,76.94
2017-11-17T09:56:21.897Z,76.46
2017-11-17T09:58:50.128Z,76.50
2017-11-17T10:01:18.474Z,76.12
2017-11-17T10:03:46.768Z,76.87
2017-11-17T10:06:15.210Z,76.84
2017-11-17T10:08:43.470Z,77.43
2017-11-17T10:11:11.779Z,77.84
2017-11-17T10:13:40.093Z,78.43
2017-11-17T10:16:08.356Z,79.29
2017-11-17T10:18:36.652Z,79.07
2017-11-17T10:21:04.922Z,78.45
2017-11-17T10:23:33.303Z,77.33
2017-11-17T10:26:01.565Z,77.57
2017-11-17T10:28:29.885Z,78.59
2017-11-17T10:30:58.196Z,79.09
2017-11-17T10:33:26.593Z,79.74
2017-11-17T10:35:55.232Z,80.00
2017-11-17T10:38:23.539Z,80.29
2017-11-17T10:40:51.862Z,79.74
2017-11-17T10:43:20.098Z,79.36
2017-11-17T10:45:48.422Z,79.00
2017-11-17T10:48:16.729Z,78.27
2017-11-17T10:50:45.361Z,77.83
2017-11-17T10:53:13.650Z,77.64
2017-11-17T10:55:41.952Z,76.90
2017-11-17T10:58:10.265Z,76.10
2017-11-17T11:00:38.521Z,76.50
2017-11-17T11:03:06.810Z,76.20
2017-11-17T11:05:35.096Z,76.76
2017-11-17T11:08:03.443Z,76.54
2017-11-17T11:10:38.464Z,76.21
2017-11-17T11:13:07.962Z,75.70
2017-11-17T11:15:37.277Z,75.36
2017-11-17T11:18:05.599Z,75.35
2017-11-17T11:20:33.855Z,74.89
2017-11-17T11:23:02.168Z,75.40
2017-11-17T11:25:31.104Z,75.37
2017-11-17T11:27:59.416Z,75.00
2017-11-17T11:30:27.653Z,74.98
2017-11-17T11:32:56.351Z,74.97
2017-11-17T11:35:24.610Z,74.95
2017-11-17T11:37:52.881Z,74.60
2017-11-17T11:40:21.171Z,74.41
2017-11-17T11:42:49.469Z,74.26
2017-11-17T11:45:17.908Z,73.56
2017-11-17T11:47:46.179Z,73.70
2017-11-17T11:50:14.607Z,73.33
2017-11-17T11:52:42.863Z,74.16
2017-11-17T11:55:11.154Z,74.30
2017-11-17T11:57:39.547Z,74.36
2017-11-17T12:00:07.872Z,74.87
2017-11-17T12:02:36.112Z,75.15
2017-11-17T12:05:04.529Z,75.31
2017-11-17T12:07:32.875Z,75.57
2017-11-17T12:10:01.180Z,76.89
2017-11-17T12:12:29.456Z,77.83
2017-11-17T12:14:57.713Z,78.01
2017-11-17T12:17:26.010Z,78.21
2017-11-17T12:19:54.357Z,78.37
2017-11-17T12:22:22.692Z,78.44
2017-11-17T12:24:50.953Z,78.58
2017-11-17T12:27:19.218Z,78.32
2017-11-17T12:29:47.485Z,77.72
2017-11-17T12:32:15.781Z,77.39
2017-11-17T12:34:44.177Z,78.52
2017-11-17T12:37:12.477Z,78.52
2017-11-17T12:39:40.737Z,78.07
2017-11-17T12:42:09.004Z,77.24
2017-11-17T12:44:37.525Z,76.70
2017-11-17T12:47:05.787Z,76.30
2017-11-17T12:49:34.127Z,75.80
2017-11-17T12:52:02.394Z,76.71
2017-11-17T12:54:30.766Z,78.15
2017-11-17T12:56:59.061Z,78.18
2017-11-17T12:59:27.336Z,78.24
2017-11-17T13:01:55.663Z,77.90
2017-11-17T13:04:23.927Z,77.49
2017-11-17T13:06:53.167Z,77.24
2017-11-17T13:09:21.443Z,77.01
2017-11-17T13:11:49.917Z,76.67
2017-11-17T13:14:18.136Z,76.71
2017-11-17T13:16:46.481Z,76.64
2017-11-17T13:19:14.758Z,77.49
2017-11-17T13:21:43.086Z,78.30
2017-11-17T13:24:11.338Z,78.50
2017-11-17T13:26:39.613Z,78.79
2017-11-17T13:29:08.494Z,79.30
2017-11-17T13:31:36.748Z,79.58
2017-11-17T13:34:05.485Z,79.41
2017-11-17T13:36:33.764Z,78.91
2017-11-17T13:39:02.979Z,78.57
2017-11-17T13:41:31.265Z,78.22
2017-11-17T13:43:59.568Z,77.97
2017-11-17T13:46:27.868Z,77.59
2017-11-17T13:48:56.183Z,77.48
2017-11-17T13:51:24.435Z,77.34
2017-11-17T13:53:52.695Z,77.27
2017-11-17T13:56:21.009Z,77.25
2017-11-17T13:58:49.377Z,77.10
2017-11-17T14:01:17.662Z,77.03
2017-11-17T14:03:45.947Z,77.10
2017-11-17T14:06:14.888Z,77.12
2017-11-17T14:08:43.156Z,77.10
2017-11-17T14:11:11.437Z,77.12
2017-11-17T14:13:39.745Z,76.57
2017-11-17T14:16:07.995Z,76.77
2017-11-17T14:18:36.277Z,77.32
2017-11-17T14:21:04.569Z,77.79
2017-11-17T14:23:33.121Z,78.10
2017-11-17T14:26:01.518Z,78.51
2017-11-17T14:28:29.807Z,78.62
2017-11-17T14:30:58.088Z,78.42
2017-11-17T14:33:26.415Z,78.04
2017-11-17T14:35:54.633Z,78.52
2017-11-17T14:38:22.921Z,78.95
2017-11-17T14:40:51.169Z,78.74
2017-11-17T14:43:19.506Z,78.81
2017-11-17T14:45:47.768Z,79.36
2017-11-17T14:48:16.047Z,79.74
2017-11-17T14:50:44.331Z,79.92
2017-11-17T14:53:12.613Z,79.86
2017-11-17T14:55:40.982Z,79.70
2017-11-17T14:58:09.245Z,79.25
2017-11-17T15:00:37.520Z,79.02
2017-11-17T15:03:05.779Z,78.57
2017-11-17T15:05:34.068Z,78.09
2017-11-17T15:08:02.355Z,77.83
2017-11-17T15:10:30.680Z,78.01
2017-11-17T15:12:58.933Z,78.73
2017-11-17T15:15:27.212Z,78.80
2017-11-17T15:17:55.477Z,79.69
2017-11-17T15:20:24.548Z,79.68
2017-11-17T15:22:52.825Z,80.23
2017-11-17T15:25:21.127Z,80.32
2017-11-17T15:27:49.408Z,80.57
2017-11-17T15:30:17.705Z,80.49
2017-11-17T15:32:46.056Z,80.02
2017-11-17T15:35:14.439Z,79.50
2017-11-17T15:37:42.682Z,79.36
2017-11-17T15:40:10.945Z,79.38
2017-11-17T15:42:40.029Z,79.06
2017-11-17T15:45:08.300Z,79.22
2017-11-17T15:47:36.603Z,79.99
2017-11-17T15:50:04.894Z,80.75
2017-11-17T15:52:33.198Z,81.45
2017-11-17T15:55:01.572Z,81.86
2017-11-17T15:57:29.853Z,81.74
2017-11-17T15:59:58.230Z,81.02
2017-11-17T16:02:26.488Z,80.62
2017-11-17T16:04:54.753Z,80.31
2017-11-17T16:07:23.077Z,80.25
2017-11-17T16:09:51.412Z,80.27
2017-11-17T16:12:19.717Z,80.21
2017-11-17T16:14:48.178Z,79.98
2017-11-17T16:17:16.462Z,79.74
2017-11-17T16:19:44.727Z,79.80
2017-11-17T16:22:13.025Z,79.89
2017-11-17T16:24:41.310Z,80.33
2017-11-17T16:27:10.078Z,80.23
2017-11-17T16:29:38.548Z,80.08
2017-11-17T16:32:06.983Z,80.46
2017-11-17T16:34:35.259Z,80.38
2017-11-17T16:37:03.832Z,80.10
2017-11-17T16:39:32.120Z,80.07
2017-11-17T16:42:00.377Z,79.44
2017-11-17T16:44:28.705Z,78.95
2017-11-17T16:46:57.078Z,78.93
2017-11-17T16:49:25.473Z,78.94
2017-11-17T16:51:53.703Z,79.32
2017-11-17T16:54:22.013Z,79.52
2017-11-17T16:56:50.319Z,79.75
2017-11-17T16:59:18.577Z,79.72
2017-11-17T17:01:46.856Z,79.59
2017-11-17T17:04:15.172Z,79.57
2017-11-17T17:06:43.447Z,79.57
2017-11-17T17:09:11.736Z,79.53
2017-11-17T17:11:40.070Z,79.25
2017-11-17T17:14:08.346Z,79.17
2017-11-17T17:16:36.663Z,79.51
2017-11-17T17:19:04.935Z,79.67
2017-11-17T17:21:33.235Z,80.13
2017-11-17T17:24:01.492Z,80.02
2017-11-17T17:26:30.660Z,79.89
2017-11-17T17:28:58.923Z,79.80
2017-11-17T17:31:34.687Z,79.65
2017-11-17T17:34:02.925Z,79.62
2017-11-17T17:36:31.213Z,79.54
2017-11-17T17:38:59.537Z,79.51
2017-11-17T17:41:27.791Z,79.53
2017-11-17T17:43:56.378Z,79.40
2017-11-17T17:46:24.633Z,79.57
2017-11-17T17:48:52.940Z,79.50
2017-11-17T17:51:21.230Z,79.30
2017-11-17T17:53:49.513Z,78.79
2017-11-17T17:56:17.793Z,79.17
2017-11-17T17:58:46.045Z,79.51
2017-11-17T18:01:14.337Z,79.70
2017-11-17T18:03:42.608Z,79.66
2017-11-17T18:06:10.941Z,79.60
2017-11-17T18:08:39.242Z,79.61
2017-11-17T18:11:07.515Z,79.44
2017-11-17T18:13:35.803Z,79.18
2017-11-17T18:16:04.094Z,79.12
2017-11-17T18:18:32.370Z,79.42
2017-11-17T18:21:00.682Z,79.80
2017-11-17T18:23:28.931Z,79.81
2017-11-17T18:25:57.211Z,79.32
2017-11-17T18:28:25.504Z,78.98
2017-11-17T18:30:53.839Z,78.77
2017-11-17T18:33:22.108Z,78.78
2017-11-17T18:35:50.408Z,78.95
2017-11-17T18:38:18.717Z,78.64
2017-11-17T18:40:47.018Z,78.64
2017-11-17T18:43:15.498Z,78.86
2017-11-17T18:45:44.435Z,78.88
2017-11-17T18:48:12.775Z,79.00
2017-11-17T18:50:41.063Z,79.13
2017-11-17T18:53:09.345Z,78.83
2017-11-17T18:55:37.626Z,79.21
2017-11-17T18:58:05.938Z,79.33
2017-11-17T19:00:34.234Z,79.46
2017-11-17T19:03:02.483Z,79.61
2017-11-17T19:05:30.756Z,79.65
2017-11-17T19:07:59.048Z,79.72
2017-11-17T19:10:27.324Z,79.72
2017-11-17T19:12:55.751Z,79.76
2017-11-17T19:15:24.016Z,79.65
2017-11-17T19:17:52.325Z,79.98
2017-11-17T19:20:20.629Z,79.18
2017-11-17T19:22:48.886Z,78.80
2017-11-17T19:25:17.228Z,79.26
2017-11-17T19:27:45.543Z,79.94
2017-11-17T19:30:13.818Z,80.16
2017-11-17T19:32:42.309Z,80.34
2017-11-17T19:35:10.623Z,80.33
2017-11-17T19:37:38.895Z,80.38
2017-11-17T19:40:07.226Z,80.38
2017-11-17T19:42:35.482Z,80.51
2017-11-17T19:45:04.159Z,79.87
2017-11-17T19:47:32.406Z,79.55
2017-11-17T19:50:00.699Z,79.39
2017-11-17T19:52:29.006Z,78.92
2017-11-17T19:54:57.320Z,79.29
2017-11-17T19:57:25.577Z,78.87
2017-11-17T19:59:53.852Z,78.71
2017-11-17T20:02:22.120Z,78.79
2017-11-17T20:04:50.486Z,78.95
2017-11-17T20:07:18.778Z,79.21
2017-11-17T20:09:47.048Z,79.59
2017-11-17T20:12:15.357Z,80.12
2017-11-17T20:14:43.663Z,79.93
2017-11-17T20:17:12.007Z,79.97
2017-11-17T20:19:40.259Z,79.96
2017-11-17T20:22:08.557Z,79.35
2017-11-17T20:24:36.847Z,79.03
2017-11-17T20:27:05.936Z,79.13
2017-11-17T20:29:34.205Z,79.18
2017-11-17T20:32:03.461Z,79.01
2017-11-17T20:34:31.764Z,78.86
2017-11-17T20:37:00.024Z,78.88
2017-11-17T20:39:28.277Z,79.02
2017-11-17T20:41:56.606Z,79.08
2017-11-17T20:44:25.745Z,79.56
2017-11-17T20:46:54.102Z,79.55
2017-11-17T20:49:22.429Z,78.74
2017-11-17T20:51:50.694Z,78.74
2017-11-17T20:54:18.977Z,78.79
2017-11-17T20:56:47.348Z,80.00
2017-11-17T20:59:15.706Z,80.26
2017-11-17T21:01:44.083Z,80.25
2017-11-17T21:04:12.377Z,80.61
2017-11-17T21:06:40.735Z,80.50
2017-11-17T21:09:09.074Z,79.73
2017-11-17T21:11:37.352Z,79.25
2017-11-17T21:14:06.521Z,78.90
2017-11-17T21:16:34.820Z,78.83
2017-11-17T21:19:03.144Z,78.85
2017-11-17T21:21:31.541Z,78.15
2017-11-17T21:23:59.822Z,78.42
2017-11-17T21:26:28.128Z,78.17
2017-11-17T21:28:56.414Z,78.48
2017-11-17T21:31:24.672Z,78.40
2017-11-17T21:33:52.932Z,78.76
2017-11-17T21:36:21.382Z,79.03
2017-11-17T21:38:49.807Z,78.98
2017-11-17T21:41:18.119Z,78.75
2017-11-17T21:43:46.418Z,78.46
2017-11-17T21:46:14.698Z,78.73
2017-11-17T21:48:42.991Z,78.91
2017-11-17T21:51:11.241Z,79.01
2017-11-17T21:53:39.614Z,79.30
2017-11-17T21:56:07.905Z,79.46
2017-11-17T21:58:36.181Z,79.35
2017-11-17T22:01:04.473Z,79.40
2017-11-17T22:03:32.758Z,79.37
2017-11-17T22:06:01.165Z,79.34
2017-11-17T22:08:29.421Z,79.29
2017-11-17T22:13:39.350Z,79.33
2017-11-17T22:16:07.649Z,79.50
2017-11-17T22:18:35.973Z,79.52
2017-11-17T22:21:04.275Z,79.55
2017-11-17T22:23:34.020Z,79.65
2017-11-17T22:26:02.688Z,79.73
2017-11-17T22:28:32.141Z,79.53
2017-11-17T22:31:00.489Z,78.91
2017-11-17T22:33:28.761Z,78.73
2017-11-17T22:35:57.025Z,78.95
2017-11-17T22:38:25.356Z,78.93
2017-11-17T22:40:53.637Z,78.92
2017-11-17T22:43:21.929Z,79.01
2017-11-17T22:45:50.207Z,79.29
2017-11-17T22:48:18.482Z,78.72
2017-11-17T22:50:47.097Z,78.37
2017-11-17T22:53:15.442Z,78.24
2017-11-17T22:55:43.684Z,78.29
2017-11-17T22:58:12.530Z,78.40
2017-11-17T23:00:40.818Z,78.63
2017-11-17T23:03:09.081Z,78.67
2017-11-17T23:05:37.389Z,78.41
2017-11-17T23:08:05.646Z,78.48
2017-11-17T23:10:34.023Z,78.50
2017-11-17T23:13:02.277Z,78.37
2017-11-17T23:15:30.642Z,78.37
2017-11-17T23:17:59.118Z,78.60
2017-11-17T23:20:27.414Z,78.66
2017-11-17T23:22:55.673Z,78.69
2017-11-17T23:25:23.966Z,78.76
2017-11-17T23:27:52.265Z,78.70
2017-11-17T23:30:20.516Z,78.59
2017-11-17T23:32:48.828Z,78.81
2017-11-17T23:35:17.083Z,78.88
2017-11-17T23:37:45.362Z,78.63
2017-11-17T23:40:13.673Z,78.20
2017-11-17T23:42:42.416Z,78.85
2017-11-17T23:45:10.691Z,79.44
2017-11-17T23:47:38.998Z,80.03
2017-11-17T23:50:07.251Z,80.14
2017-11-17T23:52:35.629Z,79.66
2017-11-17T23:55:03.917Z,78.94
2017-11-17T23:57:32.195Z,78.34
